sensor_id;sensor_type;location;lat;lon;timestamp;P1;durP1;ratioP1;P2;durP2;ratioP2
52868;SDS011;39100;53.480;6.158;2024-02-15T00:00:20;7.07;;;4.15;;
52868;SDS011;39100;53.480;6.158;2024-02-15T00:02:47;10.93;;;3.80;;
52868;SDS011;39100;53.480;6.158;2024-02-15T00:05:12;10.65;;;4.75;;
52868;SDS011;39100;53.480;6.158;2024-02-15T00:07:39;10.32;;;4.45;;
52868;SDS011;39100;53.480;6.158;2024-02-15T00:10:05;9.38;;;4.05;;
52868;SDS011;39100;53.480;6.158;2024-02-15T00:12:33;9.38;;;3.80;;
52868;SDS011;39100;53.480;6.158;2024-02-15T00:14:58;7.97;;;3.67;;
52868;SDS011;39100;53.480;6.158;2024-02-15T00:17:24;8.43;;;3.15;;
52868;SDS011;39100;53.480;6.158;2024-02-15T00:19:50;15.63;;;5.15;;
52868;SDS011;39100;53.480;6.158;2024-02-15T00:22:16;11.98;;;3.80;;
52868;SDS011;39100;53.480;6.158;2024-02-15T00:24:42;10.18;;;4.30;;
52868;SDS011;39100;53.480;6.158;2024-02-15T00:27:08;10.70;;;3.80;;
52868;SDS011;39100;53.480;6.158;2024-02-15T00:29:36;7.35;;;2.88;;
52868;SDS011;39100;53.480;6.158;2024-02-15T00:32:01;8.63;;;3.35;;
52868;SDS011;39100;53.480;6.158;2024-02-15T00:34:28;8.38;;;3.22;;
52868;SDS011;39100;53.480;6.158;2024-02-15T00:36:54;10.05;;;3.78;;
52868;SDS011;39100;53.480;6.158;2024-02-15T00:39:19;9.70;;;3.00;;
52868;SDS011;39100;53.480;6.158;2024-02-15T00:41:46;7.57;;;3.10;;
52868;SDS011;39100;53.480;6.158;2024-02-15T00:44:11;7.43;;;2.88;;
52868;SDS011;39100;53.480;6.158;2024-02-15T00:46:37;8.02;;;2.83;;
52868;SDS011;39100;53.480;6.158;2024-02-15T00:49:04;7.82;;;3.28;;
52868;SDS011;39100;53.480;6.158;2024-02-15T00:51:33;9.27;;;2.75;;
52868;SDS011;39100;53.480;6.158;2024-02-15T00:54:00;4.28;;;2.25;;
52868;SDS011;39100;53.480;6.158;2024-02-15T00:56:27;7.18;;;2.50;;
52868;SDS011;39100;53.480;6.158;2024-02-15T00:58:54;7.40;;;2.25;;
52868;SDS011;39100;53.480;6.158;2024-02-15T01:01:20;4.32;;;2.50;;
52868;SDS011;39100;53.480;6.158;2024-02-15T01:03:46;11.27;;;2.90;;
52868;SDS011;39100;53.480;6.158;2024-02-15T01:06:11;6.65;;;2.88;;
52868;SDS011;39100;53.480;6.158;2024-02-15T01:08:37;6.63;;;3.58;;
52868;SDS011;39100;53.480;6.158;2024-02-15T01:11:04;6.68;;;2.13;;
52868;SDS011;39100;53.480;6.158;2024-02-15T01:13:29;6.18;;;2.50;;
52868;SDS011;39100;53.480;6.158;2024-02-15T01:15:55;9.07;;;2.33;;
52868;SDS011;39100;53.480;6.158;2024-02-15T01:18:21;8.60;;;3.08;;
52868;SDS011;39100;53.480;6.158;2024-02-15T01:20:46;4.97;;;1.95;;
52868;SDS011;39100;53.480;6.158;2024-02-15T01:23:12;3.35;;;2.30;;
52868;SDS011;39100;53.480;6.158;2024-02-15T01:25:37;8.50;;;2.10;;
52868;SDS011;39100;53.480;6.158;2024-02-15T01:28:05;8.52;;;2.25;;
52868;SDS011;39100;53.480;6.158;2024-02-15T01:30:30;4.05;;;1.55;;
52868;SDS011;39100;53.480;6.158;2024-02-15T01:32:57;7.43;;;1.95;;
52868;SDS011;39100;53.480;6.158;2024-02-15T01:35:23;5.97;;;2.05;;
52868;SDS011;39100;53.480;6.158;2024-02-15T01:37:49;7.13;;;2.08;;
52868;SDS011;39100;53.480;6.158;2024-02-15T01:40:15;7.75;;;2.10;;
52868;SDS011;39100;53.480;6.158;2024-02-15T01:42:42;4.20;;;1.77;;
52868;SDS011;39100;53.480;6.158;2024-02-15T01:45:10;6.32;;;1.90;;
52868;SDS011;39100;53.480;6.158;2024-02-15T01:47:37;7.57;;;1.92;;
52868;SDS011;39100;53.480;6.158;2024-02-15T01:50:05;5.68;;;2.38;;
52868;SDS011;39100;53.480;6.158;2024-02-15T01:52:32;9.60;;;3.00;;
52868;SDS011;39100;53.480;6.158;2024-02-15T01:54:58;3.67;;;1.88;;
52868;SDS011;39100;53.480;6.158;2024-02-15T01:57:28;7.50;;;2.00;;
52868;SDS011;39100;53.480;6.158;2024-02-15T01:59:55;6.63;;;2.00;;
52868;SDS011;39100;53.480;6.158;2024-02-15T02:02:20;5.38;;;2.30;;
52868;SDS011;39100;53.480;6.158;2024-02-15T02:04:50;5.90;;;2.10;;
52868;SDS011;39100;53.480;6.158;2024-02-15T02:07:15;4.32;;;2.33;;
52868;SDS011;39100;53.480;6.158;2024-02-15T02:09:41;6.63;;;2.03;;
52868;SDS011;39100;53.480;6.158;2024-02-15T02:12:07;6.35;;;2.50;;
52868;SDS011;39100;53.480;6.158;2024-02-15T02:14:33;4.65;;;1.52;;
52868;SDS011;39100;53.480;6.158;2024-02-15T02:17:11;4.97;;;1.90;;
52868;SDS011;39100;53.480;6.158;2024-02-15T02:19:41;3.95;;;1.23;;
52868;SDS011;39100;53.480;6.158;2024-02-15T02:22:08;4.45;;;1.65;;
52868;SDS011;39100;53.480;6.158;2024-02-15T02:24:35;8.18;;;1.98;;
52868;SDS011;39100;53.480;6.158;2024-02-15T02:27:28;5.73;;;1.90;;
52868;SDS011;39100;53.480;6.158;2024-02-15T02:29:56;6.18;;;2.20;;
52868;SDS011;39100;53.480;6.158;2024-02-15T02:32:22;9.52;;;2.25;;
52868;SDS011;39100;53.480;6.158;2024-02-15T02:34:48;6.72;;;2.60;;
52868;SDS011;39100;53.480;6.158;2024-02-15T02:37:14;7.70;;;2.35;;
52868;SDS011;39100;53.480;6.158;2024-02-15T02:39:40;3.88;;;1.88;;
52868;SDS011;39100;53.480;6.158;2024-02-15T02:42:08;5.00;;;2.20;;
52868;SDS011;39100;53.480;6.158;2024-02-15T02:44:33;5.60;;;2.80;;
52868;SDS011;39100;53.480;6.158;2024-02-15T02:46:59;5.47;;;1.98;;
52868;SDS011;39100;53.480;6.158;2024-02-15T02:49:26;4.43;;;1.58;;
52868;SDS011;39100;53.480;6.158;2024-02-15T02:51:51;6.35;;;2.10;;
52868;SDS011;39100;53.480;6.158;2024-02-15T02:54:17;6.45;;;1.80;;
52868;SDS011;39100;53.480;6.158;2024-02-15T02:56:42;9.30;;;2.33;;
52868;SDS011;39100;53.480;6.158;2024-02-15T02:59:10;8.02;;;2.28;;
52868;SDS011;39100;53.480;6.158;2024-02-15T03:01:36;4.00;;;2.05;;
52868;SDS011;39100;53.480;6.158;2024-02-15T03:04:01;6.47;;;1.90;;
52868;SDS011;39100;53.480;6.158;2024-02-15T03:06:27;8.82;;;1.90;;
52868;SDS011;39100;53.480;6.158;2024-02-15T03:08:53;4.20;;;1.65;;
52868;SDS011;39100;53.480;6.158;2024-02-15T03:11:22;2.70;;;1.42;;
52868;SDS011;39100;53.480;6.158;2024-02-15T03:13:48;4.65;;;1.60;;
52868;SDS011;39100;53.480;6.158;2024-02-15T03:16:14;6.22;;;1.85;;
52868;SDS011;39100;53.480;6.158;2024-02-15T03:18:39;5.15;;;1.90;;
52868;SDS011;39100;53.480;6.158;2024-02-15T03:21:06;6.05;;;2.25;;
52868;SDS011;39100;53.480;6.158;2024-02-15T03:23:34;7.25;;;2.72;;
52868;SDS011;39100;53.480;6.158;2024-02-15T03:26:01;8.15;;;2.80;;
52868;SDS011;39100;53.480;6.158;2024-02-15T03:28:26;9.20;;;3.05;;
52868;SDS011;39100;53.480;6.158;2024-02-15T03:30:52;8.13;;;2.78;;
52868;SDS011;39100;53.480;6.158;2024-02-15T03:33:18;5.32;;;2.63;;
52868;SDS011;39100;53.480;6.158;2024-02-15T03:35:43;7.18;;;2.38;;
52868;SDS011;39100;53.480;6.158;2024-02-15T03:38:09;8.45;;;3.08;;
52868;SDS011;39100;53.480;6.158;2024-02-15T03:40:34;6.22;;;3.17;;
52868;SDS011;39100;53.480;6.158;2024-02-15T03:43:00;6.93;;;3.47;;
52868;SDS011;39100;53.480;6.158;2024-02-15T03:45:26;7.40;;;2.65;;
52868;SDS011;39100;53.480;6.158;2024-02-15T03:47:52;4.70;;;2.30;;
52868;SDS011;39100;53.480;6.158;2024-02-15T03:50:18;8.32;;;2.65;;
52868;SDS011;39100;53.480;6.158;2024-02-15T03:52:45;5.72;;;2.55;;
52868;SDS011;39100;53.480;6.158;2024-02-15T03:55:11;6.25;;;2.53;;
52868;SDS011;39100;53.480;6.158;2024-02-15T03:57:38;5.18;;;2.40;;
52868;SDS011;39100;53.480;6.158;2024-02-15T04:00:07;4.72;;;2.28;;
52868;SDS011;39100;53.480;6.158;2024-02-15T04:02:35;4.63;;;2.70;;
52868;SDS011;39100;53.480;6.158;2024-02-15T04:05:01;6.55;;;3.42;;
52868;SDS011;39100;53.480;6.158;2024-02-15T04:07:29;5.53;;;2.35;;
52868;SDS011;39100;53.480;6.158;2024-02-15T04:09:55;3.10;;;1.90;;
52868;SDS011;39100;53.480;6.158;2024-02-15T04:12:21;6.90;;;2.53;;
52868;SDS011;39100;53.480;6.158;2024-02-15T04:14:47;4.50;;;2.42;;
52868;SDS011;39100;53.480;6.158;2024-02-15T04:17:14;4.68;;;2.30;;
52868;SDS011;39100;53.480;6.158;2024-02-15T04:19:43;7.18;;;3.50;;
52868;SDS011;39100;53.480;6.158;2024-02-15T04:22:09;4.88;;;1.88;;
52868;SDS011;39100;53.480;6.158;2024-02-15T04:24:35;8.27;;;2.25;;
52868;SDS011;39100;53.480;6.158;2024-02-15T04:27:05;5.35;;;2.05;;
52868;SDS011;39100;53.480;6.158;2024-02-15T04:29:33;4.70;;;1.90;;
52868;SDS011;39100;53.480;6.158;2024-02-15T04:31:59;4.72;;;2.08;;
52868;SDS011;39100;53.480;6.158;2024-02-15T04:34:25;8.07;;;1.92;;
52868;SDS011;39100;53.480;6.158;2024-02-15T04:36:51;8.00;;;2.00;;
52868;SDS011;39100;53.480;6.158;2024-02-15T04:39:20;6.43;;;1.38;;
52868;SDS011;39100;53.480;6.158;2024-02-15T04:41:58;4.35;;;1.75;;
52868;SDS011;39100;53.480;6.158;2024-02-15T04:44:24;4.95;;;2.78;;
52868;SDS011;39100;53.480;6.158;2024-02-15T04:46:52;7.13;;;2.30;;
52868;SDS011;39100;53.480;6.158;2024-02-15T04:49:18;6.82;;;2.00;;
52868;SDS011;39100;53.480;6.158;2024-02-15T04:51:45;12.18;;;2.17;;
52868;SDS011;39100;53.480;6.158;2024-02-15T04:54:12;6.65;;;2.60;;
52868;SDS011;39100;53.480;6.158;2024-02-15T04:56:38;8.93;;;3.05;;
52868;SDS011;39100;53.480;6.158;2024-02-15T04:59:04;11.32;;;3.65;;
52868;SDS011;39100;53.480;6.158;2024-02-15T05:01:34;7.72;;;3.50;;
52868;SDS011;39100;53.480;6.158;2024-02-15T05:04:00;11.63;;;4.40;;
52868;SDS011;39100;53.480;6.158;2024-02-15T05:08:58;9.32;;;4.25;;
52868;SDS011;39100;53.480;6.158;2024-02-15T05:11:25;7.85;;;4.38;;
52868;SDS011;39100;53.480;6.158;2024-02-15T05:13:51;9.13;;;4.25;;
52868;SDS011;39100;53.480;6.158;2024-02-15T05:16:17;15.30;;;5.10;;
52868;SDS011;39100;53.480;6.158;2024-02-15T05:18:43;10.70;;;4.63;;
52868;SDS011;39100;53.480;6.158;2024-02-15T05:21:10;10.02;;;4.93;;
52868;SDS011;39100;53.480;6.158;2024-02-15T05:23:36;13.02;;;5.28;;
52868;SDS011;39100;53.480;6.158;2024-02-15T05:26:04;11.75;;;5.18;;
52868;SDS011;39100;53.480;6.158;2024-02-15T05:28:30;13.25;;;6.10;;
52868;SDS011;39100;53.480;6.158;2024-02-15T05:31:12;15.15;;;5.75;;
52868;SDS011;39100;53.480;6.158;2024-02-15T05:33:48;9.13;;;5.65;;
52868;SDS011;39100;53.480;6.158;2024-02-15T05:36:15;12.70;;;5.88;;
52868;SDS011;39100;53.480;6.158;2024-02-15T05:38:44;8.13;;;5.63;;
52868;SDS011;39100;53.480;6.158;2024-02-15T05:41:10;9.35;;;5.65;;
52868;SDS011;39100;53.480;6.158;2024-02-15T05:43:36;10.70;;;5.65;;
52868;SDS011;39100;53.480;6.158;2024-02-15T05:46:03;9.73;;;5.63;;
52868;SDS011;39100;53.480;6.158;2024-02-15T05:48:31;10.10;;;5.88;;
52868;SDS011;39100;53.480;6.158;2024-02-15T05:51:00;9.20;;;5.63;;
52868;SDS011;39100;53.480;6.158;2024-02-15T05:53:29;11.52;;;5.78;;
52868;SDS011;39100;53.480;6.158;2024-02-15T05:55:55;8.45;;;5.20;;
52868;SDS011;39100;53.480;6.158;2024-02-15T05:58:23;7.72;;;4.60;;
52868;SDS011;39100;53.480;6.158;2024-02-15T06:00:49;12.98;;;6.38;;
52868;SDS011;39100;53.480;6.158;2024-02-15T06:03:18;10.50;;;6.00;;
52868;SDS011;39100;53.480;6.158;2024-02-15T06:05:44;11.75;;;5.35;;
52868;SDS011;39100;53.480;6.158;2024-02-15T06:08:12;8.00;;;5.28;;
52868;SDS011;39100;53.480;6.158;2024-02-15T06:10:38;9.63;;;4.85;;
52868;SDS011;39100;53.480;6.158;2024-02-15T06:13:05;9.85;;;5.22;;
52868;SDS011;39100;53.480;6.158;2024-02-15T06:15:30;10.57;;;5.80;;
52868;SDS011;39100;53.480;6.158;2024-02-15T06:17:57;10.13;;;5.30;;
52868;SDS011;39100;53.480;6.158;2024-02-15T06:20:23;10.32;;;4.97;;
52868;SDS011;39100;53.480;6.158;2024-02-15T06:22:50;10.15;;;5.03;;
52868;SDS011;39100;53.480;6.158;2024-02-15T06:25:17;7.45;;;4.60;;
52868;SDS011;39100;53.480;6.158;2024-02-15T06:27:45;7.57;;;4.40;;
52868;SDS011;39100;53.480;6.158;2024-02-15T06:30:12;11.30;;;5.28;;
52868;SDS011;39100;53.480;6.158;2024-02-15T06:32:57;12.13;;;5.22;;
52868;SDS011;39100;53.480;6.158;2024-02-15T06:35:41;11.55;;;5.20;;
52868;SDS011;39100;53.480;6.158;2024-02-15T06:38:26;7.28;;;5.03;;
52868;SDS011;39100;53.480;6.158;2024-02-15T06:41:10;12.85;;;4.40;;
52868;SDS011;39100;53.480;6.158;2024-02-15T06:43:37;11.40;;;4.45;;
52868;SDS011;39100;53.480;6.158;2024-02-15T06:46:06;9.88;;;4.70;;
52868;SDS011;39100;53.480;6.158;2024-02-15T06:48:32;8.05;;;5.15;;
52868;SDS011;39100;53.480;6.158;2024-02-15T06:50:57;10.65;;;6.82;;
52868;SDS011;39100;53.480;6.158;2024-02-15T06:53:23;12.55;;;6.78;;
52868;SDS011;39100;53.480;6.158;2024-02-15T06:55:49;10.75;;;6.22;;
52868;SDS011;39100;53.480;6.158;2024-02-15T06:58:15;9.13;;;5.68;;
52868;SDS011;39100;53.480;6.158;2024-02-15T07:00:42;12.30;;;5.80;;
52868;SDS011;39100;53.480;6.158;2024-02-15T07:03:08;12.43;;;6.68;;
52868;SDS011;39100;53.480;6.158;2024-02-15T07:05:34;10.18;;;6.47;;
52868;SDS011;39100;53.480;6.158;2024-02-15T07:08:00;8.23;;;5.05;;
52868;SDS011;39100;53.480;6.158;2024-02-15T07:10:26;9.63;;;5.65;;
52868;SDS011;39100;53.480;6.158;2024-02-15T07:12:52;10.85;;;6.15;;
52868;SDS011;39100;53.480;6.158;2024-02-15T07:15:17;8.25;;;4.75;;
52868;SDS011;39100;53.480;6.158;2024-02-15T07:17:43;10.18;;;5.68;;
52868;SDS011;39100;53.480;6.158;2024-02-15T07:20:11;9.25;;;5.43;;
52868;SDS011;39100;53.480;6.158;2024-02-15T07:22:39;9.07;;;5.93;;
52868;SDS011;39100;53.480;6.158;2024-02-15T07:25:05;9.80;;;5.53;;
52868;SDS011;39100;53.480;6.158;2024-02-15T07:27:30;10.25;;;6.50;;
52868;SDS011;39100;53.480;6.158;2024-02-15T07:29:59;9.95;;;6.40;;
52868;SDS011;39100;53.480;6.158;2024-02-15T07:32:25;8.90;;;5.38;;
52868;SDS011;39100;53.480;6.158;2024-02-15T07:34:52;10.23;;;5.60;;
52868;SDS011;39100;53.480;6.158;2024-02-15T07:37:17;9.05;;;6.45;;
52868;SDS011;39100;53.480;6.158;2024-02-15T07:39:43;11.00;;;5.53;;
52868;SDS011;39100;53.480;6.158;2024-02-15T07:42:08;9.98;;;6.32;;
52868;SDS011;39100;53.480;6.158;2024-02-15T07:44:34;12.57;;;7.40;;
52868;SDS011;39100;53.480;6.158;2024-02-15T07:47:01;9.57;;;6.50;;
52868;SDS011;39100;53.480;6.158;2024-02-15T07:49:27;11.80;;;6.82;;
52868;SDS011;39100;53.480;6.158;2024-02-15T07:51:53;12.55;;;6.57;;
52868;SDS011;39100;53.480;6.158;2024-02-15T07:54:19;11.32;;;7.38;;
52868;SDS011;39100;53.480;6.158;2024-02-15T07:56:48;9.43;;;7.15;;
52868;SDS011;39100;53.480;6.158;2024-02-15T07:59:14;10.80;;;7.15;;
52868;SDS011;39100;53.480;6.158;2024-02-15T08:01:44;10.48;;;6.65;;
52868;SDS011;39100;53.480;6.158;2024-02-15T08:04:15;11.80;;;7.33;;
52868;SDS011;39100;53.480;6.158;2024-02-15T08:06:42;12.52;;;7.93;;
52868;SDS011;39100;53.480;6.158;2024-02-15T08:09:08;11.18;;;6.72;;
52868;SDS011;39100;53.480;6.158;2024-02-15T08:11:39;10.90;;;6.47;;
52868;SDS011;39100;53.480;6.158;2024-02-15T08:14:05;11.93;;;7.40;;
52868;SDS011;39100;53.480;6.158;2024-02-15T08:16:33;14.60;;;8.88;;
52868;SDS011;39100;53.480;6.158;2024-02-15T08:19:00;14.18;;;9.32;;
52868;SDS011;39100;53.480;6.158;2024-02-15T08:21:30;16.85;;;9.38;;
52868;SDS011;39100;53.480;6.158;2024-02-15T08:24:01;15.05;;;9.48;;
52868;SDS011;39100;53.480;6.158;2024-02-15T08:26:31;13.48;;;8.43;;
52868;SDS011;39100;53.480;6.158;2024-02-15T08:28:57;14.65;;;9.27;;
52868;SDS011;39100;53.480;6.158;2024-02-15T08:31:23;12.88;;;7.95;;
52868;SDS011;39100;53.480;6.158;2024-02-15T08:33:49;12.27;;;8.13;;
52868;SDS011;39100;53.480;6.158;2024-02-15T08:36:14;13.20;;;8.48;;
52868;SDS011;39100;53.480;6.158;2024-02-15T08:38:40;10.95;;;7.63;;
52868;SDS011;39100;53.480;6.158;2024-02-15T08:41:08;13.52;;;8.75;;
52868;SDS011;39100;53.480;6.158;2024-02-15T08:43:36;12.43;;;8.43;;
52868;SDS011;39100;53.480;6.158;2024-02-15T08:46:05;15.07;;;9.25;;
52868;SDS011;39100;53.480;6.158;2024-02-15T08:48:31;15.00;;;8.98;;
52868;SDS011;39100;53.480;6.158;2024-02-15T08:50:57;14.73;;;9.23;;
52868;SDS011;39100;53.480;6.158;2024-02-15T08:53:23;11.43;;;7.93;;
52868;SDS011;39100;53.480;6.158;2024-02-15T08:55:49;11.27;;;6.82;;
52868;SDS011;39100;53.480;6.158;2024-02-15T08:58:15;8.55;;;5.93;;
52868;SDS011;39100;53.480;6.158;2024-02-15T09:00:40;6.53;;;5.22;;
52868;SDS011;39100;53.480;6.158;2024-02-15T09:03:10;9.00;;;5.65;;
52868;SDS011;39100;53.480;6.158;2024-02-15T09:05:36;7.30;;;4.47;;
52868;SDS011;39100;53.480;6.158;2024-02-15T09:08:02;6.95;;;4.65;;
52868;SDS011;39100;53.480;6.158;2024-02-15T09:10:29;7.65;;;4.63;;
52868;SDS011;39100;53.480;6.158;2024-02-15T09:12:55;8.23;;;5.15;;
52868;SDS011;39100;53.480;6.158;2024-02-15T09:15:21;7.10;;;4.78;;
52868;SDS011;39100;53.480;6.158;2024-02-15T09:17:47;10.32;;;4.90;;
52868;SDS011;39100;53.480;6.158;2024-02-15T09:20:14;8.82;;;5.90;;
52868;SDS011;39100;53.480;6.158;2024-02-15T09:25:06;10.25;;;5.72;;
52868;SDS011;39100;53.480;6.158;2024-02-15T09:27:33;9.07;;;5.57;;
52868;SDS011;39100;53.480;6.158;2024-02-15T09:29:58;10.73;;;5.88;;
52868;SDS011;39100;53.480;6.158;2024-02-15T09:32:24;10.30;;;6.47;;
52868;SDS011;39100;53.480;6.158;2024-02-15T09:34:49;9.88;;;6.65;;
52868;SDS011;39100;53.480;6.158;2024-02-15T09:37:15;13.68;;;7.60;;
52868;SDS011;39100;53.480;6.158;2024-02-15T09:39:40;12.20;;;7.18;;
52868;SDS011;39100;53.480;6.158;2024-02-15T09:42:06;14.02;;;7.60;;
52868;SDS011;39100;53.480;6.158;2024-02-15T09:44:32;14.30;;;8.05;;
52868;SDS011;39100;53.480;6.158;2024-02-15T09:47:02;13.85;;;7.47;;
52868;SDS011;39100;53.480;6.158;2024-02-15T09:49:33;10.75;;;7.30;;
52868;SDS011;39100;53.480;6.158;2024-02-15T09:52:04;13.13;;;6.97;;
52868;SDS011;39100;53.480;6.158;2024-02-15T09:54:36;13.40;;;7.60;;
52868;SDS011;39100;53.480;6.158;2024-02-15T09:57:04;11.43;;;7.20;;
52868;SDS011;39100;53.480;6.158;2024-02-15T09:59:30;13.88;;;7.10;;
52868;SDS011;39100;53.480;6.158;2024-02-15T10:01:58;11.27;;;6.18;;
52868;SDS011;39100;53.480;6.158;2024-02-15T10:04:24;9.30;;;6.22;;
52868;SDS011;39100;53.480;6.158;2024-02-15T10:06:50;12.30;;;6.55;;
52868;SDS011;39100;53.480;6.158;2024-02-15T10:09:23;9.57;;;5.95;;
52868;SDS011;39100;53.480;6.158;2024-02-15T10:11:56;8.43;;;5.57;;
52868;SDS011;39100;53.480;6.158;2024-02-15T10:14:25;8.13;;;5.40;;
52868;SDS011;39100;53.480;6.158;2024-02-15T10:16:52;9.65;;;5.90;;
52868;SDS011;39100;53.480;6.158;2024-02-15T10:19:21;8.45;;;6.03;;
52868;SDS011;39100;53.480;6.158;2024-02-15T10:21:51;6.47;;;4.97;;
52868;SDS011;39100;53.480;6.158;2024-02-15T10:24:20;7.95;;;5.43;;
52868;SDS011;39100;53.480;6.158;2024-02-15T10:26:48;6.38;;;4.50;;
52868;SDS011;39100;53.480;6.158;2024-02-15T10:29:13;6.32;;;4.05;;
52868;SDS011;39100;53.480;6.158;2024-02-15T10:31:51;6.65;;;4.53;;
52868;SDS011;39100;53.480;6.158;2024-02-15T10:34:18;5.78;;;3.92;;
52868;SDS011;39100;53.480;6.158;2024-02-15T10:36:45;5.35;;;3.80;;
52868;SDS011;39100;53.480;6.158;2024-02-15T10:39:14;6.57;;;3.80;;
52868;SDS011;39100;53.480;6.158;2024-02-15T10:41:47;4.50;;;3.45;;
52868;SDS011;39100;53.480;6.158;2024-02-15T10:44:19;4.80;;;3.53;;
52868;SDS011;39100;53.480;6.158;2024-02-15T10:46:47;4.63;;;3.28;;
52868;SDS011;39100;53.480;6.158;2024-02-15T10:49:16;4.50;;;3.30;;
52868;SDS011;39100;53.480;6.158;2024-02-15T10:54:46;4.88;;;3.15;;
52868;SDS011;39100;53.480;6.158;2024-02-15T10:57:29;3.75;;;3.03;;
52868;SDS011;39100;53.480;6.158;2024-02-15T10:59:58;3.38;;;2.90;;
52868;SDS011;39100;53.480;6.158;2024-02-15T11:05:33;3.53;;;2.80;;
52868;SDS011;39100;53.480;6.158;2024-02-15T11:08:00;4.32;;;3.03;;
52868;SDS011;39100;53.480;6.158;2024-02-15T11:10:30;3.40;;;2.65;;
52868;SDS011;39100;53.480;6.158;2024-02-15T11:12:56;2.83;;;2.55;;
52868;SDS011;39100;53.480;6.158;2024-02-15T11:18:02;2.97;;;2.38;;
52868;SDS011;39100;53.480;6.158;2024-02-15T11:22:59;2.92;;;2.50;;
52868;SDS011;39100;53.480;6.158;2024-02-15T11:30:50;2.90;;;2.38;;
52868;SDS011;39100;53.480;6.158;2024-02-15T11:33:27;2.50;;;2.30;;
52868;SDS011;39100;53.480;6.158;2024-02-15T11:38:36;2.25;;;2.05;;
52868;SDS011;39100;53.480;6.158;2024-02-15T11:41:05;2.63;;;2.42;;
52868;SDS011;39100;53.480;6.158;2024-02-15T11:46:20;2.67;;;2.17;;
52868;SDS011;39100;53.480;6.158;2024-02-15T11:48:50;2.40;;;2.20;;
52868;SDS011;39100;53.480;6.158;2024-02-15T11:51:26;2.03;;;1.90;;
52868;SDS011;39100;53.480;6.158;2024-02-15T11:54:02;3.17;;;2.17;;
52868;SDS011;39100;53.480;6.158;2024-02-15T11:56:32;1.70;;;1.60;;
52868;SDS011;39100;53.480;6.158;2024-02-15T11:59:29;1.80;;;1.70;;
52868;SDS011;39100;53.480;6.158;2024-02-15T12:02:07;1.25;;;1.15;;
52868;SDS011;39100;53.480;6.158;2024-02-15T12:04:52;1.42;;;1.27;;
52868;SDS011;39100;53.480;6.158;2024-02-15T12:07:36;1.27;;;1.17;;
52868;SDS011;39100;53.480;6.158;2024-02-15T12:10:20;1.00;;;0.95;;
52868;SDS011;39100;53.480;6.158;2024-02-15T12:13:05;0.50;;;0.50;;
52868;SDS011;39100;53.480;6.158;2024-02-15T12:15:58;0.77;;;0.70;;
52868;SDS011;39100;53.480;6.158;2024-02-15T12:18:43;0.60;;;0.60;;
52868;SDS011;39100;53.480;6.158;2024-02-15T12:21:12;0.60;;;0.60;;
52868;SDS011;39100;53.480;6.158;2024-02-15T12:23:42;0.98;;;0.98;;
52868;SDS011;39100;53.480;6.158;2024-02-15T12:26:08;1.40;;;1.10;;
52868;SDS011;39100;53.480;6.158;2024-02-15T12:28:34;1.23;;;1.10;;
52868;SDS011;39100;53.480;6.158;2024-02-15T12:31:00;1.00;;;1.00;;
52868;SDS011;39100;53.480;6.158;2024-02-15T12:33:27;1.88;;;1.17;;
52868;SDS011;39100;53.480;6.158;2024-02-15T12:36:03;2.42;;;2.20;;
52868;SDS011;39100;53.480;6.158;2024-02-15T12:38:32;3.67;;;2.30;;
52868;SDS011;39100;53.480;6.158;2024-02-15T12:41:05;8.13;;;4.90;;
52868;SDS011;39100;53.480;6.158;2024-02-15T12:43:45;5.65;;;3.13;;
52868;SDS011;39100;53.480;6.158;2024-02-15T12:46:11;5.85;;;4.07;;
52868;SDS011;39100;53.480;6.158;2024-02-15T12:48:37;9.25;;;5.32;;
52868;SDS011;39100;53.480;6.158;2024-02-15T12:51:15;6.68;;;4.18;;
52868;SDS011;39100;53.480;6.158;2024-02-15T12:53:41;8.90;;;5.13;;
52868;SDS011;39100;53.480;6.158;2024-02-15T12:56:07;13.73;;;7.50;;
52868;SDS011;39100;53.480;6.158;2024-02-15T12:58:34;15.80;;;8.18;;
52868;SDS011;39100;53.480;6.158;2024-02-15T13:01:00;13.82;;;6.82;;
52868;SDS011;39100;53.480;6.158;2024-02-15T13:03:27;11.70;;;6.63;;
52868;SDS011;39100;53.480;6.158;2024-02-15T13:05:52;14.05;;;7.40;;
52868;SDS011;39100;53.480;6.158;2024-02-15T13:08:18;12.77;;;7.25;;
52868;SDS011;39100;53.480;6.158;2024-02-15T13:10:45;12.95;;;6.35;;
52868;SDS011;39100;53.480;6.158;2024-02-15T13:13:11;12.35;;;6.43;;
52868;SDS011;39100;53.480;6.158;2024-02-15T13:15:41;14.43;;;6.28;;
52868;SDS011;39100;53.480;6.158;2024-02-15T13:18:07;13.10;;;6.18;;
52868;SDS011;39100;53.480;6.158;2024-02-15T13:20:38;10.98;;;6.18;;
52868;SDS011;39100;53.480;6.158;2024-02-15T13:23:04;10.52;;;6.20;;
52868;SDS011;39100;53.480;6.158;2024-02-15T13:25:37;10.80;;;5.07;;
52868;SDS011;39100;53.480;6.158;2024-02-15T13:28:04;12.13;;;6.03;;
52868;SDS011;39100;53.480;6.158;2024-02-15T13:30:31;11.65;;;5.93;;
52868;SDS011;39100;53.480;6.158;2024-02-15T13:32:57;9.32;;;5.72;;
52868;SDS011;39100;53.480;6.158;2024-02-15T13:35:23;9.73;;;5.55;;
52868;SDS011;39100;53.480;6.158;2024-02-15T13:37:52;11.43;;;5.80;;
52868;SDS011;39100;53.480;6.158;2024-02-15T13:40:19;8.85;;;4.60;;
52868;SDS011;39100;53.480;6.158;2024-02-15T13:42:50;9.10;;;4.53;;
52868;SDS011;39100;53.480;6.158;2024-02-15T13:45:23;5.13;;;3.58;;
52868;SDS011;39100;53.480;6.158;2024-02-15T13:47:56;6.75;;;3.97;;
52868;SDS011;39100;53.480;6.158;2024-02-15T13:50:22;6.55;;;3.63;;
52868;SDS011;39100;53.480;6.158;2024-02-15T13:52:48;6.07;;;4.38;;
52868;SDS011;39100;53.480;6.158;2024-02-15T13:55:15;7.80;;;4.22;;
52868;SDS011;39100;53.480;6.158;2024-02-15T13:57:43;7.28;;;4.32;;
52868;SDS011;39100;53.480;6.158;2024-02-15T14:00:10;7.32;;;4.38;;
52868;SDS011;39100;53.480;6.158;2024-02-15T14:02:47;7.43;;;4.25;;
52868;SDS011;39100;53.480;6.158;2024-02-15T14:05:19;8.50;;;4.97;;
52868;SDS011;39100;53.480;6.158;2024-02-15T14:07:48;7.65;;;4.10;;
52868;SDS011;39100;53.480;6.158;2024-02-15T14:10:15;9.90;;;4.40;;
52868;SDS011;39100;53.480;6.158;2024-02-15T14:12:43;6.90;;;4.38;;
52868;SDS011;39100;53.480;6.158;2024-02-15T14:15:10;8.88;;;5.35;;
52868;SDS011;39100;53.480;6.158;2024-02-15T14:17:36;6.18;;;4.53;;
52868;SDS011;39100;53.480;6.158;2024-02-15T14:20:02;10.88;;;5.43;;
52868;SDS011;39100;53.480;6.158;2024-02-15T14:22:33;8.50;;;4.32;;
52868;SDS011;39100;53.480;6.158;2024-02-15T14:24:59;8.35;;;4.65;;
52868;SDS011;39100;53.480;6.158;2024-02-15T14:27:25;7.07;;;4.63;;
52868;SDS011;39100;53.480;6.158;2024-02-15T14:29:51;8.52;;;4.82;;
52868;SDS011;39100;53.480;6.158;2024-02-15T14:32:35;8.88;;;4.82;;
52868;SDS011;39100;53.480;6.158;2024-02-15T14:35:19;7.80;;;4.15;;
52868;SDS011;39100;53.480;6.158;2024-02-15T14:37:46;8.55;;;4.57;;
52868;SDS011;39100;53.480;6.158;2024-02-15T14:40:11;6.35;;;3.83;;
52868;SDS011;39100;53.480;6.158;2024-02-15T14:42:40;5.43;;;3.45;;
52868;SDS011;39100;53.480;6.158;2024-02-15T14:45:07;8.23;;;4.55;;
52868;SDS011;39100;53.480;6.158;2024-02-15T14:47:34;9.77;;;4.57;;
52868;SDS011;39100;53.480;6.158;2024-02-15T14:50:00;9.27;;;4.97;;
52868;SDS011;39100;53.480;6.158;2024-02-15T14:52:25;7.40;;;4.28;;
52868;SDS011;39100;53.480;6.158;2024-02-15T14:54:51;6.45;;;4.40;;
52868;SDS011;39100;53.480;6.158;2024-02-15T14:57:17;9.50;;;4.80;;
52868;SDS011;39100;53.480;6.158;2024-02-15T14:59:42;8.60;;;4.55;;
52868;SDS011;39100;53.480;6.158;2024-02-15T15:02:08;9.20;;;5.43;;
52868;SDS011;39100;53.480;6.158;2024-02-15T15:04:34;11.30;;;5.25;;
52868;SDS011;39100;53.480;6.158;2024-02-15T15:07:20;10.05;;;5.13;;
52868;SDS011;39100;53.480;6.158;2024-02-15T15:10:04;9.88;;;5.38;;
52868;SDS011;39100;53.480;6.158;2024-02-15T15:12:49;11.25;;;6.07;;
52868;SDS011;39100;53.480;6.158;2024-02-15T15:15:15;9.52;;;5.50;;